Time;durP1;ratioP1;P1;durP2;ratioP2;P2;SDS_P1;SDS_P2;PMS_P1;PMS_P2;Temp;Humidity;BMP_temperature;BMP_pressure;BME280_temperature;BME280_humidity;BME280_pressure;Samples;Min_cycle;Max_cycle;Signal;HPM_P1;HPM_P2
2022/09/23 00:00:59;;;;;;;14.27;11.33;;;;;;;8.95;100.00;94892.13;5134228;27;20238;-74
2022/09/23 00:03:28;;;;;;;14.20;11.60;;;;;;;9.04;100.00;94896.09;5134136;27;20195;-75
2022/09/23 00:05:58;;;;;;;15.77;10.63;;;;;;;9.10;100.00;94883.16;5134948;27;20864;-75
2022/09/23 00:08:25;;;;;;;13.73;10.87;;;;;;;9.19;100.00;94888.09;5136890;27;20211;-75
2022/09/23 00:10:52;;;;;;;14.03;10.10;;;;;;;9.24;100.00;94886.50;5138290;27;20222;-75
2022/09/23 00:13:20;;;;;;;14.37;10.80;;;;;;;9.26;100.00;94879.31;5136033;27;20274;-75
2022/09/23 00:16:09;;;;;;;15.40;11.10;;;;;;;9.31;100.00;94884.69;5131805;27;20677;-75
2022/09/23 00:18:36;;;;;;;13.77;10.87;;;;;;;9.34;100.00;94865.31;5132877;27;20199;-75
2022/09/23 00:21:04;;;;;;;15.83;11.50;;;;;;;9.36;99.68;94871.91;5135535;27;20200;-75
2022/09/23 00:23:31;;;;;;;18.50;12.13;;;;;;;9.38;99.93;94867.28;5131642;27;20203;-75
2022/09/23 00:25:59;;;;;;;20.43;12.30;;;;;;;9.42;99.82;94870.28;5133028;27;20677;-75
2022/09/23 00:28:26;;;;;;;17.63;12.10;;;;;;;9.48;99.83;94866.88;5135403;27;20231;-75
2022/09/23 00:30:52;;;;;;;17.97;12.57;;;;;;;9.46;99.06;94872.28;5134856;27;20214;-75
2022/09/23 00:33:21;;;;;;;14.53;11.17;;;;;;;9.47;99.03;94870.47;5135361;27;20235;-75
2022/09/23 00:35:48;;;;;;;15.00;11.23;;;;;;;9.50;98.35;94870.03;5130967;27;20211;-75
2022/09/23 00:38:16;;;;;;;16.30;11.10;;;;;;;9.46;99.02;94868.88;5132162;27;20251;-75
2022/09/23 00:40:44;;;;;;;16.73;11.17;;;;;;;9.42;99.25;94871.09;5132608;27;20198;-75
2022/09/23 00:43:13;;;;;;;15.83;11.30;;;;;;;9.41;98.36;94876.47;5137773;27;20209;-76
2022/09/23 00:45:41;;;;;;;16.73;11.17;;;;;;;9.36;97.77;94871.09;5133830;27;20210;-75
2022/09/23 00:48:15;;;;;;;12.10;9.83;;;;;;;9.36;97.65;94868.50;5134127;27;20583;-76
2022/09/23 00:50:51;;;;;;;13.60;10.10;;;;;;;9.35;98.05;94874.72;5135927;27;20198;-76
2022/09/23 00:53:22;;;;;;;13.10;9.93;;;;;;;9.33;98.89;94872.31;5134396;27;21593;-76
2022/09/23 00:55:52;;;;;;;12.13;9.53;;;;;;;9.35;98.59;94872.13;5138043;27;21029;-75
2022/09/23 00:58:26;;;;;;;9.80;7.80;;;;;;;9.26;97.74;94878.53;5137435;27;20300;-76
2022/09/23 01:00:53;;;;;;;8.63;7.27;;;;;;;9.09;97.65;94858.22;5135006;27;20673;-75
2022/09/23 01:03:21;;;;;;;8.40;7.33;;;;;;;9.17;97.91;94869.38;5130766;27;20230;-75
2022/09/23 01:05:50;;;;;;;11.60;7.50;;;;;;;9.13;97.62;94877.56;5131588;27;20644;-76
2022/09/23 01:08:19;;;;;;;9.67;7.63;;;;;;;9.16;97.50;94872.94;5141136;27;20211;-75
2022/09/23 01:10:56;;;;;;;9.03;7.77;;;;;;;9.15;97.60;94874.75;5132892;27;20198;-74
2022/09/23 01:13:31;;;;;;;10.20;7.83;;;;;;;9.16;97.93;94885.91;5134258;27;20701;-74
2022/09/23 01:16:05;;;;;;;9.23;7.57;;;;;;;9.15;97.78;94885.13;5133550;27;20195;-75
2022/09/23 01:18:40;;;;;;;10.43;8.40;;;;;;;8.98;96.88;94864.03;5133322;27;20202;-75
2022/09/23 01:21:24;;;;;;;11.37;8.37;;;;;;;8.62;98.03;94878.44;5129876;27;20197;-75
2022/09/23 01:24:31;;;;;;;10.93;8.43;;;;;;;8.28;100.00;94876.84;5133263;27;20199;-74
2022/09/23 01:27:10;;;;;;;10.43;8.70;;;;;;;8.11;100.00;94880.75;5110032;27;20657;-76
2022/09/23 01:30:17;;;;;;;10.27;8.37;;;;;;;8.07;100.00;94885.53;5130942;27;20250;-74
2022/09/23 01:33:10;;;;;;;10.73;8.37;;;;;;;8.12;100.00;94882.34;5132688;27;20226;-75
2022/09/23 01:35:47;;;;;;;11.47;8.17;;;;;;;8.13;100.00;94883.94;5131017;27;20210;-75
2022/09/23 01:38:29;;;;;;;13.63;8.63;;;;;;;8.17;100.00;94887.72;5130457;27;20207;-73
2022/09/23 01:41:03;;;;;;;11.37;8.73;;;;;;;8.18;100.00;94884.94;5133012;27;20725;-74
2022/09/23 01:43:38;;;;;;;12.53;9.57;;;;;;;8.16;100.00;94886.13;5132274;27;20649;-74
2022/09/23 01:46:11;;;;;;;12.17;9.30;;;;;;;7.84;100.00;94875.53;5131297;27;20637;-73
2022/09/23 01:48:46;;;;;;;11.80;9.03;;;;;;;7.76;100.00;94886.03;5134676;27;20191;-74
2022/09/23 01:51:19;;;;;;;13.50;9.20;;;;;;;7.82;100.00;94887.06;5133794;27;20195;-74
2022/09/23 01:53:51;;;;;;;12.80;9.63;;;;;;;7.85;100.00;94887.47;5135236;27;20222;-75
2022/09/23 01:56:25;;;;;;;11.63;9.60;;;;;;;7.88;100.00;94891.44;5130853;27;20218;-74
2022/09/23 01:59:00;;;;;;;15.17;9.47;;;;;;;7.88;100.00;94883.66;5133249;27;20213;-73
2022/09/23 02:01:35;;;;;;;12.20;9.70;;;;;;;7.89;100.00;94882.69;5134048;27;20198;-74
2022/09/23 02:04:07;;;;;;;12.00;9.73;;;;;;;7.99;100.00;94883.13;5132840;27;20203;-74
2022/09/23 02:06:40;;;;;;;13.60;9.97;;;;;;;8.02;100.00;94881.94;5133443;27;20286;-74
2022/09/23 02:09:12;;;;;;;15.30;10.20;;;;;;;8.15;100.00;94892.28;5132615;27;20206;-74
2022/09/23 02:11:41;;;;;;;13.70;9.93;;;;;;;8.17;100.00;94885.94;5133055;27;20732;-74
2022/09/23 02:14:14;;;;;;;14.17;9.87;;;;;;;8.19;100.00;94886.53;5138337;27;20226;-75
2022/09/23 02:16:46;;;;;;;14.07;10.33;;;;;;;8.19;100.00;94880.56;5133820;27;20286;-74
2022/09/23 02:19:21;;;;;;;15.30;10.30;;;;;;;8.18;100.00;94887.53;5134466;27;20549;-74
2022/09/23 02:21:54;;;;;;;13.90;10.03;;;;;;;8.22;100.00;94885.34;5131511;27;20206;-75
2022/09/23 02:24:27;;;;;;;11.03;9.00;;;;;;;8.29;100.00;94888.75;5130583;27;20264;-74
2022/09/23 02:26:58;;;;;;;15.27;9.93;;;;;;;8.16;100.00;94884.34;5131971;27;20210;-75
2022/09/23 02:29:33;;;;;;;13.50;9.90;;;;;;;8.05;100.00;94884.13;5135430;27;20222;-74
2022/09/23 02:32:13;;;;;;;15.53;10.03;;;;;;;8.13;100.00;94886.53;5132193;27;20198;-74
2022/09/23 02:34:46;;;;;;;12.70;9.37;;;;;;;8.22;100.00;94880.97;5135612;27;20217;-75
2022/09/23 02:37:23;;;;;;;12.80;9.20;;;;;;;8.03;100.00;94881.72;5132280;27;20190;-74
2022/09/23 02:40:00;;;;;;;13.73;9.17;;;;;;;7.90;100.00;94873.94;5133552;27;20374;-75
2022/09/23 02:42:33;;;;;;;13.13;9.37;;;;;;;8.03;100.00;94884.31;5130202;27;20202;-75
2022/09/23 02:45:00;;;;;;;12.97;9.10;;;;;;;8.21;100.00;94873.41;5128669;27;20202;-75
2022/09/23 02:47:32;;;;;;;13.53;9.50;;;;;;;8.21;100.00;94884.56;5128758;27;20206;-74
2022/09/23 02:50:01;;;;;;;14.27;9.00;;;;;;;8.29;100.00;94888.75;5132548;27;20195;-74
2022/09/23 02:52:28;;;;;;;10.37;8.77;;;;;;;8.29;100.00;94881.78;5129706;27;20231;-74
2022/09/23 02:54:55;;;;;;;11.33;8.77;;;;;;;8.33;100.00;94892.56;5138981;27;20227;-75
2022/09/23 02:57:22;;;;;;;10.67;8.47;;;;;;;8.45;100.00;94901.34;5132137;27;20203;-75
2022/09/23 02:59:50;;;;;;;10.70;8.43;;;;;;;8.50;100.00;94896.34;5132447;27;20695;-74
2022/09/23 03:02:37;;;;;;;10.10;8.07;;;;;;;8.41;100.00;94898.34;5132206;27;20230;-75
2022/09/23 03:05:11;;;;;;;10.27;8.20;;;;;;;8.35;100.00;94887.97;5131160;27;20282;-74
2022/09/23 03:07:49;;;;;;;8.23;7.07;;;;;;;8.16;100.00;94893.91;5135440;27;20274;-74
2022/09/23 03:10:23;;;;;;;9.27;7.30;;;;;;;8.01;100.00;94891.50;5140943;27;20201;-74
2022/09/23 03:13:00;;;;;;;9.53;7.20;;;;;;;7.87;100.00;94890.66;5139772;27;20214;-75
2022/09/23 03:15:35;;;;;;;11.23;7.70;;;;;;;7.84;100.00;94895.44;5134675;27;20213;-76
2022/09/23 03:18:13;;;;;;;10.27;7.90;;;;;;;7.84;100.00;94904.00;5137999;27;20217;-77
2022/09/23 03:20:48;;;;;;;14.00;10.20;;;;;;;7.92;100.00;94890.06;5140303;27;20294;-76
2022/09/23 03:23:20;;;;;;;12.37;9.37;;;;;;;7.97;100.00;94895.44;5139917;27;20210;-76
2022/09/23 03:25:52;;;;;;;13.97;9.83;;;;;;;7.97;100.00;94892.84;5139270;27;20199;-77
2022/09/23 03:28:21;;;;;;;14.40;9.30;;;;;;;7.69;100.00;94893.00;5137811;27;20206;-77
2022/09/23 03:30:49;;;;;;;12.73;9.17;;;;;;;7.44;100.00;94897.84;5137288;27;20207;-77
2022/09/23 03:33:18;;;;;;;13.40;9.43;;;;;;;7.37;100.00;94884.13;5139645;27;20199;-77
2022/09/23 03:38:41;;;;;;;10.60;8.40;;;;;;;7.51;100.00;94897.88;5137833;27;20190;-77
2022/09/23 03:41:15;;;;;;;12.57;8.67;;;;;;;7.55;100.00;94886.19;5135920;27;20199;-77
2022/09/23 03:43:43;;;;;;;11.80;8.33;;;;;;;7.67;100.00;94891.59;5138272;27;20199;-77
2022/09/23 03:46:10;;;;;;;14.37;8.97;;;;;;;7.70;100.00;94901.56;5141725;27;20199;-78
2022/09/23 03:48:36;;;;;;;15.27;11.00;;;;;;;7.51;100.00;94892.72;5139979;27;20203;-77
2022/09/23 03:51:20;;;;;;;16.60;10.80;;;;;;;7.37;100.00;94894.44;5137803;27;20195;-77
2022/09/23 03:53:48;;;;;;;15.27;9.77;;;;;;;7.29;100.00;94886.06;5138219;27;20254;-78
2022/09/23 03:56:16;;;;;;;12.40;9.07;;;;;;;7.01;100.00;94898.25;5093946;27;20799;-77
2022/09/23 03:58:44;;;;;;;14.43;9.83;;;;;;;6.92;100.00;94892.44;5129182;27;20258;-76
2022/09/23 04:01:11;;;;;;;14.17;9.40;;;;;;;7.03;100.00;94901.44;5139889;27;20252;-77
2022/09/23 04:03:38;;;;;;;13.60;10.43;;;;;;;7.01;100.00;94901.63;5139636;27;20207;-76
2022/09/23 04:06:07;;;;;;;14.27;10.03;;;;;;;7.17;100.00;94903.09;5141296;27;20425;-76
2022/09/23 04:08:33;;;;;;;19.80;10.40;;;;;;;7.34;100.00;94914.72;5138208;27;20199;-76
2022/09/23 04:11:01;;;;;;;13.30;10.40;;;;;;;7.51;100.00;94905.63;5138480;27;20206;-77
2022/09/23 04:13:28;;;;;;;14.07;10.30;;;;;;;7.63;100.00;94906.69;5136644;27;20199;-76
2022/09/23 04:15:55;;;;;;;13.27;10.13;;;;;;;7.65;100.00;94906.47;5140914;27;20230;-76
2022/09/23 04:18:22;;;;;;;14.93;10.67;;;;;;;7.71;100.00;94916.88;5134019;27;20304;-77
2022/09/23 04:20:49;;;;;;;17.53;11.60;;;;;;;7.51;100.00;94917.78;5133302;27;20214;-76
2022/09/23 04:23:17;;;;;;;18.27;11.83;;;;;;;7.52;100.00;94911.63;5132928;27;20670;-76
2022/09/23 04:25:45;;;;;;;20.47;12.17;;;;;;;7.58;100.00;94916.81;5135405;27;20199;-76
2022/09/23 04:28:12;;;;;;;16.90;11.80;;;;;;;7.69;100.00;94913.69;5104485;27;20199;-76
2022/09/23 04:30:42;;;;;;;20.53;12.07;;;;;;;7.63;100.00;94921.41;5134431;27;20275;-76
2022/09/23 04:33:09;;;;;;;15.33;11.13;;;;;;;7.65;100.00;94914.25;5135245;27;20581;-76
2022/09/23 04:35:37;;;;;;;16.73;11.23;;;;;;;7.61;100.00;94915.63;5136228;27;20249;-76
2022/09/23 04:38:04;;;;;;;20.87;12.83;;;;;;;7.40;100.00;94929.47;5136992;27;20213;-76
2022/09/23 04:40:33;;;;;;;20.93;13.33;;;;;;;7.28;100.00;94928.41;5134050;27;20207;-77
2022/09/23 04:43:00;;;;;;;21.00;13.80;;;;;;;7.24;100.00;94934.97;5132085;27;20206;-76
2022/09/23 04:45:27;;;;;;;22.97;13.77;;;;;;;7.20;100.00;94941.47;5110539;27;20198;-73
2022/09/23 04:47:56;;;;;;;20.37;13.47;;;;;;;7.15;100.00;94943.84;5132481;27;20211;-76
2022/09/23 04:50:24;;;;;;;20.30;12.83;;;;;;;7.09;100.00;94947.19;5131940;27;20210;-76
2022/09/23 04:52:51;;;;;;;18.33;12.40;;;;;;;7.04;100.00;94931.44;5133149;27;20329;-77
2022/09/23 04:55:18;;;;;;;17.70;12.13;;;;;;;7.08;100.00;94940.41;5134433;27;20276;-75
2022/09/23 04:57:46;;;;;;;20.77;13.63;;;;;;;7.06;100.00;94942.38;5132068;27;20630;-76
2022/09/23 05:00:15;;;;;;;20.63;13.93;;;;;;;6.99;100.00;94934.59;5134914;27;20204;-76
2022/09/23 05:02:45;;;;;;;20.97;13.30;;;;;;;7.24;100.00;94950.47;5134781;27;20210;-78
2022/09/23 05:05:12;;;;;;;17.03;12.27;;;;;;;7.24;100.00;94953.03;5128085;27;21202;-73
2022/09/23 05:07:38;;;;;;;16.43;11.40;;;;;;;7.07;100.00;94955.09;5132220;27;20206;-75
2022/09/23 05:10:06;;;;;;;17.37;11.67;;;;;;;7.09;100.00;94955.72;5131063;27;20199;-74
2022/09/23 05:12:33;;;;;;;19.63;13.13;;;;;;;7.11;100.00;94961.50;5131253;27;20206;-75
2022/09/23 05:15:01;;;;;;;28.57;19.37;;;;;;;7.05;100.00;94951.13;5137469;27;20232;-74
2022/09/23 05:17:30;;;;;;;30.83;19.77;;;;;;;7.14;100.00;94958.53;5133165;27;20210;-73
2022/09/23 05:19:58;;;;;;;20.87;14.70;;;;;;;7.23;100.00;94954.03;5134005;27;20210;-74
2022/09/23 05:22:26;;;;;;;28.63;17.50;;;;;;;7.25;100.00;94949.44;5132041;27;20314;-74
2022/09/23 05:24:53;;;;;;;45.63;31.87;;;;;;;7.35;100.00;94958.47;5130940;27;20779;-74
2022/09/23 05:27:21;;;;;;;47.30;34.17;;;;;;;7.50;100.00;94958.38;5132092;27;20690;-75
2022/09/23 05:29:49;;;;;;;50.33;34.70;;;;;;;7.52;100.00;94968.50;5132733;27;20207;-74
2022/09/23 05:32:17;;;;;;;55.87;36.93;;;;;;;7.61;100.00;94967.38;5133886;27;20887;-74
2022/09/23 05:34:44;;;;;;;58.97;35.37;;;;;;;7.65;100.00;94961.59;5132630;27;20233;-75
2022/09/23 05:37:11;;;;;;;44.57;31.47;;;;;;;7.71;100.00;94976.34;5135710;27;20681;-74
2022/09/23 05:39:38;;;;;;;36.57;26.00;;;;;;;7.77;100.00;94967.84;5131084;27;20662;-75
2022/09/23 05:42:06;;;;;;;23.97;18.43;;;;;;;7.86;100.00;94969.25;5133358;27;20203;-75
2022/09/23 05:44:33;;;;;;;26.13;19.50;;;;;;;7.99;100.00;94977.06;5134541;27;20198;-74
2022/09/23 05:46:59;;;;;;;26.00;15.53;;;;;;;8.15;100.00;94975.13;5134790;27;20608;-74
2022/09/23 05:49:28;;;;;;;21.37;15.80;;;;;;;8.28;100.00;94977.81;5126911;27;20207;-74
2022/09/23 05:51:55;;;;;;;22.97;15.27;;;;;;;8.29;100.00;94974.19;5129603;27;20265;-74
2022/09/23 05:54:21;;;;;;;19.57;14.13;;;;;;;8.37;100.00;94971.41;5134059;27;20210;-74
2022/09/23 05:56:48;;;;;;;19.07;12.63;;;;;;;8.42;100.00;94969.06;5130059;27;20210;-74
2022/09/23 05:59:15;;;;;;;20.03;13.00;;;;;;;8.42;100.00;94975.06;5132873;27;20203;-74
2022/09/23 06:01:44;;;;;;;18.77;12.90;;;;;;;8.52;100.00;94972.06;5132775;27;20207;-74
2022/09/23 06:04:13;;;;;;;20.43;12.50;;;;;;;8.62;100.00;94962.13;5134751;27;20222;-74
2022/09/23 06:06:42;;;;;;;16.50;11.80;;;;;;;8.69;100.00;94975.06;5132622;27;20207;-75
2022/09/23 06:09:12;;;;;;;18.20;12.67;;;;;;;8.72;100.00;94970.28;5131685;27;20204;-74
2022/09/23 06:11:40;;;;;;;15.43;10.83;;;;;;;8.78;100.00;94974.69;5135704;27;20289;-74
2022/09/23 06:14:08;;;;;;;13.77;10.43;;;;;;;8.81;100.00;94966.50;5130926;27;20729;-75
2022/09/23 06:16:35;;;;;;;14.87;10.50;;;;;;;8.93;100.00;94964.13;5133172;27;20777;-75
2022/09/23 06:19:05;;;;;;;16.53;9.80;;;;;;;8.90;100.00;94965.31;5131940;27;20662;-74
2022/09/23 06:21:33;;;;;;;10.87;9.13;;;;;;;8.88;100.00;94972.50;5134308;27;20190;-74
2022/09/23 06:24:02;;;;;;;14.20;9.47;;;;;;;8.87;100.00;94964.91;5130295;27;20203;-74
2022/09/23 06:26:32;;;;;;;10.37;8.10;;;;;;;8.90;100.00;94970.50;5131839;27;20195;-74
2022/09/23 06:28:59;;;;;;;11.53;8.70;;;;;;;8.93;100.00;94972.69;5128571;27;20717;-75
2022/09/23 06:31:26;;;;;;;11.83;8.40;;;;;;;8.95;100.00;94969.88;5130973;27;20278;-74
2022/09/23 06:33:53;;;;;;;11.43;9.10;;;;;;;9.07;100.00;94963.91;5130085;27;20729;-73
2022/09/23 06:36:20;;;;;;;11.27;7.83;;;;;;;9.16;100.00;94971.47;5129797;27;20736;-72
2022/09/23 06:38:48;;;;;;;11.77;8.60;;;;;;;9.13;100.00;94975.28;5134656;27;20211;-75
2022/09/23 06:41:19;;;;;;;13.87;8.50;;;;;;;8.95;100.00;94975.06;5132397;27;20202;-74
2022/09/23 06:43:46;;;;;;;10.30;7.90;;;;;;;8.94;100.00;94973.50;5133032;27;20728;-74
2022/09/23 06:46:15;;;;;;;8.50;7.40;;;;;;;8.99;100.00;94969.31;5132138;27;20191;-74
2022/09/23 06:48:43;;;;;;;11.13;8.47;;;;;;;9.02;100.00;94962.91;5131329;27;20221;-74
2022/09/23 06:51:17;;;;;;;13.57;8.77;;;;;;;8.95;100.00;94975.88;5132653;27;20550;-74
2022/09/23 06:53:45;;;;;;;13.03;9.00;;;;;;;8.87;100.00;94973.50;5134871;27;20228;-74
2022/09/23 06:56:13;;;;;;;10.93;8.13;;;;;;;8.78;100.00;94969.50;5133155;27;20215;-75
2022/09/23 06:58:41;;;;;;;10.17;8.30;;;;;;;8.77;100.00;94978.28;5133041;27;20670;-76
2022/09/23 07:01:10;;;;;;;11.17;7.50;;;;;;;8.88;100.00;94964.72;5133133;27;20225;-75
2022/09/23 07:03:38;;;;;;;11.83;8.80;;;;;;;8.84;100.00;94980.84;5130915;27;20202;-74
2022/09/23 07:06:06;;;;;;;9.40;7.70;;;;;;;8.94;100.00;94976.91;5131966;27;20586;-74
2022/09/23 07:08:34;;;;;;;7.87;6.67;;;;;;;8.92;100.00;94988.44;5129609;27;20199;-74
2022/09/23 07:11:03;;;;;;;11.40;8.87;;;;;;;9.01;100.00;94984.66;5114446;27;20227;-75
2022/09/23 07:13:32;;;;;;;10.63;8.10;;;;;;;9.04;100.00;94971.28;5130511;27;20229;-80
2022/09/23 07:16:01;;;;;;;7.73;6.90;;;;;;;8.99;100.00;94991.84;5129496;27;20593;-85
2022/09/23 07:18:30;;;;;;;10.73;7.67;;;;;;;9.03;100.00;94986.03;5127711;27;20199;-76
2022/09/23 07:20:57;;;;;;;9.73;7.77;;;;;;;9.24;100.00;94992.00;5130171;27;20222;-76
2022/09/23 07:23:25;;;;;;;10.30;7.13;;;;;;;9.34;98.88;95001.00;5131104;27;20253;-76
2022/09/23 07:25:52;;;;;;;9.47;6.90;;;;;;;9.44;98.81;94993.59;5133513;27;20269;-76
2022/09/23 07:28:19;;;;;;;9.50;6.67;;;;;;;9.47;98.98;94989.78;5137842;27;20419;-77
2022/09/23 07:30:48;;;;;;;8.97;6.80;;;;;;;9.40;98.87;94989.00;5132725;27;20287;-72
2022/09/23 07:33:17;;;;;;;10.50;7.07;;;;;;;9.37;98.60;94979.03;5132346;27;20291;-72
2022/09/23 07:35:44;;;;;;;10.90;7.50;;;;;;;9.46;99.30;94994.19;5130792;27;20219;-72
2022/09/23 07:38:11;;;;;;;14.10;7.13;;;;;;;9.70;97.66;94996.13;5136976;27;20654;-72
2022/09/23 07:40:39;;;;;;;8.23;6.83;;;;;;;9.80;96.97;94990.50;5134336;27;20202;-73
2022/09/23 07:43:08;;;;;;;9.23;7.20;;;;;;;9.90;96.88;95003.84;5134562;27;20211;-73
2022/09/23 07:45:35;;;;;;;10.40;7.03;;;;;;;9.91;96.19;95005.44;5132569;27;20199;-74
2022/09/23 07:48:03;;;;;;;9.73;7.17;;;;;;;9.87;95.80;95006.06;5135046;27;20199;-73
2022/09/23 07:50:31;;;;;;;8.50;6.70;;;;;;;9.62;97.89;95006.72;5130498;27;20227;-73
2022/09/23 07:53:01;;;;;;;9.80;6.70;;;;;;;9.78;98.39;95005.50;5129365;27;20262;-72
2022/09/23 07:55:28;;;;;;;8.43;6.83;;;;;;;9.93;96.45;95003.44;5133965;27;20218;-73
2022/09/23 07:57:55;;;;;;;9.13;7.27;;;;;;;10.10;95.68;95003.81;5132024;27;20225;-73
2022/09/23 08:00:23;;;;;;;8.10;6.73;;;;;;;10.14;95.11;94998.00;5134042;27;20210;-74
2022/09/23 08:02:50;;;;;;;10.30;6.20;;;;;;;10.19;94.38;95002.56;5133257;27;20214;-76
2022/09/23 08:05:17;;;;;;;7.97;6.80;;;;;;;10.34;94.48;95004.91;5134047;27;20693;-77
2022/09/23 08:07:48;;;;;;;11.53;7.80;;;;;;;10.50;93.74;95012.22;5135428;27;20665;-76
2022/09/23 08:10:17;;;;;;;9.37;6.70;;;;;;;10.45;93.34;95012.84;5141436;27;20195;-83
2022/09/23 08:12:45;;;;;;;7.50;6.13;;;;;;;10.46;92.88;95005.84;5135517;27;20259;-78
2022/09/23 08:15:12;;;;;;;11.30;6.90;;;;;;;10.55;93.41;95009.78;5135123;27;20214;-76
2022/09/23 08:17:39;;;;;;;8.87;6.03;;;;;;;10.64;91.43;95006.75;5134256;27;20199;-77
2022/09/23 08:20:07;;;;;;;8.40;5.97;;;;;;;10.60;90.88;95009.97;5135286;27;20693;-77
2022/09/23 08:22:34;;;;;;;14.93;7.07;;;;;;;10.42;91.32;95004.69;5136784;27;20210;-77
2022/09/23 08:25:02;;;;;;;20.90;7.53;;;;;;;10.48;93.90;95004.63;5138830;27;20668;-79
2022/09/23 08:27:31;;;;;;;6.83;5.63;;;;;;;10.67;89.81;95005.53;5135133;27;20214;-77
2022/09/23 08:29:58;;;;;;;7.53;6.10;;;;;;;10.86;90.31;95009.00;5127997;27;20400;-77
2022/09/23 08:32:25;;;;;;;8.40;6.37;;;;;;;10.98;90.43;94997.72;5132297;27;20215;-77
2022/09/23 08:34:52;;;;;;;13.10;6.93;;;;;;;11.14;90.64;94991.19;5134573;27;20214;-77
2022/09/23 08:37:19;;;;;;;7.23;6.10;;;;;;;11.36;88.94;94998.41;5134227;27;21613;-78
2022/09/23 08:39:45;;;;;;;9.17;6.00;;;;;;;11.31;87.72;94998.22;5130373;27;20257;-77
2022/09/23 08:42:23;;;;;;;7.30;5.97;;;;;;;11.15;86.71;95005.78;5134621;27;20207;-78
2022/09/23 08:44:54;;;;;;;8.50;6.10;;;;;;;11.03;88.26;94994.47;5135381;27;20223;-78
2022/09/23 08:47:24;;;;;;;9.33;6.07;;;;;;;11.18;88.04;94992.34;5136714;27;20290;-77
2022/09/23 08:49:59;;;;;;;6.87;5.40;;;;;;;11.32;88.16;94996.44;5137091;27;20203;-77
2022/09/23 08:52:34;;;;;;;8.03;5.30;;;;;;;11.48;87.82;94989.91;5130611;27;20233;-77
2022/09/23 08:55:02;;;;;;;7.00;5.70;;;;;;;11.80;86.11;94986.19;5133718;27;20277;-77
2022/09/23 08:57:49;;;;;;;7.87;5.03;;;;;;;11.94;83.48;94996.25;5135870;27;20715;-77
2022/09/23 09:00:21;;;;;;;5.07;4.10;;;;;;;11.68;83.01;94993.91;5133544;27;20199;-77
2022/09/23 09:02:49;;;;;;;7.17;5.00;;;;;;;11.69;83.83;94995.50;5133179;27;20214;-77
2022/09/23 09:05:23;;;;;;;8.43;4.90;;;;;;;11.81;82.45;94980.75;5133731;27;20639;-77
2022/09/23 09:07:50;;;;;;;6.70;5.10;;;;;;;12.12;82.24;94977.19;5135353;27;20209;-77
2022/09/23 09:10:22;;;;;;;6.50;4.73;;;;;;;12.67;81.82;94988.28;5135833;27;20202;-77
2022/09/23 09:13:00;;;;;;;6.03;4.73;;;;;;;13.09;78.73;94983.91;5137166;27;20203;-77
2022/09/23 09:15:28;;;;;;;4.70;4.20;;;;;;;13.03;77.79;94987.38;5131687;27;20294;-77
2022/09/23 09:18:01;;;;;;;5.20;4.60;;;;;;;12.86;78.75;94983.81;5135209;27;20560;-77
2022/09/23 09:20:48;;;;;;;6.57;4.50;;;;;;;12.97;79.17;95002.09;5131745;27;20202;-78
2022/09/23 09:23:21;;;;;;;4.83;4.30;;;;;;;13.36;77.40;94998.09;5133308;27;20195;-74
2022/09/23 09:25:49;;;;;;;6.63;4.40;;;;;;;13.82;75.83;94988.69;5133557;27;20203;-74
2022/09/23 09:28:22;;;;;;;4.50;4.00;;;;;;;14.14;73.10;94995.88;5127754;27;20230;-74
2022/09/23 09:30:55;;;;;;;4.10;3.70;;;;;;;14.10;72.13;94989.53;5133801;27;20199;-74
2022/09/23 09:33:29;;;;;;;5.50;3.77;;;;;;;14.43;71.22;94983.66;5132826;27;20199;-74
2022/09/23 09:36:19;;;;;;;4.00;3.57;;;;;;;14.90;69.97;94986.06;5132598;27;20637;-74
2022/09/23 09:38:47;;;;;;;9.33;4.77;;;;;;;15.19;69.45;94990.22;5133666;27;20199;-73
2022/09/23 09:41:16;;;;;;;6.47;3.50;;;;;;;15.05;68.58;94989.72;5135039;27;20210;-74
2022/09/23 09:43:56;;;;;;;7.13;4.00;;;;;;;15.51;68.27;94993.09;5134371;27;20584;-75
2022/09/23 09:46:50;;;;;;;5.13;4.27;;;;;;;15.93;66.06;94994.19;5132632;27;20191;-74
2022/09/23 09:49:27;;;;;;;5.43;4.17;;;;;;;16.25;65.05;94995.13;5117447;27;20199;-73
2022/09/23 09:52:14;;;;;;;4.30;3.90;;;;;;;16.50;64.16;94999.09;5133490;27;20599;-73
2022/09/23 09:54:43;;;;;;;3.97;3.30;;;;;;;16.45;63.33;94997.19;5133685;27;20924;-79
2022/09/23 09:57:19;;;;;;;3.90;3.50;;;;;;;16.27;63.58;94994.91;5132233;27;20227;-78
2022/09/23 09:59:47;;;;;;;3.40;3.10;;;;;;;16.11;64.27;94983.44;5130432;27;20187;-76
2022/09/23 10:02:24;;;;;;;4.13;3.10;;;;;;;16.33;62.12;94989.44;5134196;27;20225;-76
2022/09/23 10:04:57;;;;;;;3.50;3.20;;;;;;;16.74;62.17;94993.34;5135119;27;20205;-77
2022/09/23 10:07:26;;;;;;;3.67;3.30;;;;;;;17.23;60.36;94988.78;5136006;27;20199;-77
2022/09/23 10:09:53;;;;;;;3.37;2.90;;;;;;;17.44;58.23;94981.88;5132795;27;20203;-77
2022/09/23 10:12:21;;;;;;;3.80;3.40;;;;;;;17.74;57.88;94990.00;5133148;27;20257;-77
2022/09/23 10:14:51;;;;;;;3.20;2.80;;;;;;;18.03;57.24;94982.53;5133737;27;20218;-77
2022/09/23 10:17:21;;;;;;;3.57;3.27;;;;;;;18.12;56.31;94979.16;5134557;27;20308;-77
2022/09/23 10:19:49;;;;;;;3.50;3.20;;;;;;;18.49;56.21;94973.00;5132455;27;20595;-75
2022/09/23 10:22:21;;;;;;;3.43;3.13;;;;;;;18.84;55.38;94982.84;5131175;27;20198;-76
2022/09/23 10:24:49;;;;;;;4.90;3.40;;;;;;;18.76;53.89;94975.47;5134094;27;20622;-77
2022/09/23 10:27:27;;;;;;;3.10;2.80;;;;;;;18.51;53.28;94979.59;5134142;27;20562;-77
2022/09/23 10:29:58;;;;;;;4.00;3.00;;;;;;;18.64;54.52;94975.69;5134893;27;20210;-76
2022/09/23 10:32:28;;;;;;;4.20;3.53;;;;;;;18.81;53.50;94973.63;5130160;27;20237;-82
2022/09/23 10:35:02;;;;;;;4.80;3.77;;;;;;;18.17;54.87;94972.34;5131362;27;20623;-77
2022/09/23 10:37:36;;;;;;;3.50;3.20;;;;;;;17.84;53.06;94962.97;5133884;27;20219;-77
2022/09/23 10:46:45;;;;;;;3.33;3.00;;;;;;;18.17;52.58;94961.81;5130771;27;20244;-76
2022/09/23 10:49:38;;;;;;;4.27;2.93;;;;;;;18.69;50.77;94960.69;5132168;27;20201;-80
2022/09/23 10:52:18;;;;;;;4.17;3.07;;;;;;;19.21;49.95;94954.41;5129762;27;20317;-78
2022/09/23 10:54:56;;;;;;;3.50;3.20;;;;;;;19.51;49.32;94959.69;5133116;27;20191;-77
2022/09/23 10:57:43;;;;;;;3.97;3.23;;;;;;;19.28;49.54;94958.34;5132160;27;20311;-76
2022/09/23 11:00:22;;;;;;;3.10;2.80;;;;;;;19.01;49.73;94946.50;5133368;27;20688;-76
2022/09/23 11:03:34;;;;;;;3.07;2.60;;;;;;;19.32;47.84;94957.84;5133153;27;20204;-77
2022/09/23 11:06:12;;;;;;;2.67;2.47;;;;;;;19.26;44.82;94949.13;5095114;27;20195;-77
2022/09/23 11:09:15;;;;;;;2.67;2.47;;;;;;;19.24;44.41;94944.16;5129189;27;20195;-78
2022/09/23 11:11:53;;;;;;;2.92;2.28;;;;;;;20.00;42.15;94943.25;5112405;27;20209;-78
2022/09/23 11:14:37;;;;;;;2.95;2.15;;;;;;;20.24;40.20;94941.56;5133111;27;20203;-78
2022/09/23 11:17:23;;;;;;;2.85;2.20;;;;;;;20.48;39.40;94936.47;5135528;27;20226;-76
2022/09/23 11:20:09;;;;;;;2.22;1.92;;;;;;;20.34;38.12;94926.50;5126916;27;20203;-78
2022/09/23 11:22:52;;;;;;;3.83;1.98;;;;;;;20.67;37.93;94940.84;5131343;27;20187;-75
2022/09/23 11:25:41;;;;;;;2.60;2.00;;;;;;;20.09;38.58;94936.34;5134544;27;20199;-73
2022/09/23 11:28:51;;;;;;;2.47;2.28;;;;;;;18.63;42.04;94931.97;5127856;27;20237;-75
2022/09/23 11:31:31;;;;;;;2.90;2.20;;;;;;;18.51;43.22;94926.94;5104178;27;21065;-75
2022/09/23 11:34:18;;;;;;;2.10;1.90;;;;;;;18.56;41.66;94926.16;5134045;27;20633;-75
2022/09/23 11:36:52;;;;;;;2.70;2.30;;;;;;;18.96;42.79;94920.16;5134638;27;20702;-75
2022/09/23 11:39:23;;;;;;;3.63;2.20;;;;;;;19.62;41.25;94924.34;5138964;27;20199;-74
2022/09/23 11:41:55;;;;;;;2.03;1.83;;;;;;;20.24;39.91;94920.44;5135606;27;20210;-74
2022/09/23 11:44:28;;;;;;;2.17;1.88;;;;;;;20.92;38.54;94921.41;5136677;27;20548;-74
2022/09/23 11:47:00;;;;;;;3.25;2.00;;;;;;;21.37;37.47;94921.06;5134277;27;20215;-73
2022/09/23 11:49:32;;;;;;;2.30;2.10;;;;;;;20.99;37.14;94919.22;5137426;27;20206;-78
2022/09/23 11:52:08;;;;;;;5.90;2.13;;;;;;;21.05;37.73;94917.31;5131214;27;20237;-78
2022/09/23 11:54:44;;;;;;;2.55;2.10;;;;;;;20.95;37.25;94907.63;5133097;27;20199;-82
2022/09/23 11:57:22;;;;;;;3.70;2.28;;;;;;;20.86;37.62;94917.22;5134444;27;20223;-80